createdAt,value
2024-03-09T00:00:44.724Z,31.07
2024-03-09T00:03:13.014Z,30.43
2024-03-09T00:05:43.649Z,30.70
2024-03-09T00:08:13.016Z,31.13
2024-03-09T00:10:41.097Z,33.40
2024-03-09T00:13:11.904Z,31.47
2024-03-09T00:15:41.107Z,28.57
2024-03-09T00:18:08.276Z,32.40
2024-03-09T00:20:37.866Z,30.70
2024-03-09T00:23:10.019Z,30.10
2024-03-09T00:25:39.345Z,31.23
2024-03-09T00:28:07.218Z,29.50
2024-03-09T00:30:36.461Z,31.03
2024-03-09T00:33:07.973Z,31.03
2024-03-09T00:35:36.048Z,30.80
2024-03-09T00:38:05.708Z,30.17
2024-03-09T00:40:33.347Z,32.53
2024-03-09T00:43:05.749Z,30.00
2024-03-09T00:45:32.847Z,31.50
2024-03-09T00:47:59.958Z,30.90
2024-03-09T00:50:28.530Z,32.47
2024-03-09T00:52:56.419Z,32.13
2024-03-09T00:55:24.331Z,31.90
2024-03-09T00:57:52.314Z,29.27
2024-03-09T01:00:20.818Z,31.40
2024-03-09T01:02:50.737Z,31.00
2024-03-09T01:05:24.682Z,31.50
2024-03-09T01:07:52.776Z,31.37
2024-03-09T01:10:20.163Z,30.63
2024-03-09T01:12:49.317Z,29.50
2024-03-09T01:15:16.867Z,32.20
2024-03-09T01:17:44.022Z,31.87
2024-03-09T01:20:11.743Z,31.47
2024-03-09T01:22:45.070Z,31.47
2024-03-09T01:25:12.616Z,31.80
2024-03-09T01:27:40.065Z,31.47
2024-03-09T01:30:07.804Z,32.20
2024-03-09T01:32:35.014Z,31.90
2024-03-09T01:35:03.698Z,31.30
2024-03-09T01:37:30.968Z,31.43
2024-03-09T01:39:58.079Z,30.43
2024-03-09T01:42:25.189Z,29.80
2024-03-09T01:44:52.584Z,31.40
2024-03-09T01:47:23.437Z,31.77
2024-03-09T01:49:53.330Z,30.80
2024-03-09T01:52:22.400Z,32.60
2024-03-09T01:54:52.742Z,31.13
2024-03-09T01:57:20.695Z,33.10
2024-03-09T01:59:56.382Z,29.50
2024-03-09T02:02:26.665Z,32.27
2024-03-09T02:04:53.982Z,31.77
2024-03-09T02:07:21.057Z,32.23
2024-03-09T02:09:49.978Z,33.97
2024-03-09T02:12:19.005Z,31.13
2024-03-09T02:14:46.661Z,32.17
2024-03-09T02:17:14.875Z,32.93
2024-03-09T02:19:42.506Z,31.90
2024-03-09T02:22:13.065Z,32.10
2024-03-09T02:24:42.462Z,32.30
2024-03-09T02:27:11.464Z,32.97
2024-03-09T02:29:40.008Z,30.70
2024-03-09T02:32:08.732Z,33.17
2024-03-09T02:34:36.385Z,30.97
2024-03-09T02:37:04.753Z,33.97
2024-03-09T02:39:32.411Z,31.33
2024-03-09T02:42:00.335Z,32.50
2024-03-09T02:44:30.710Z,29.53
2024-03-09T02:46:57.978Z,31.13
2024-03-09T02:49:28.126Z,31.23
2024-03-09T02:51:55.434Z,32.13
2024-03-09T02:54:22.539Z,32.60
2024-03-09T02:56:51.041Z,30.50
2024-03-09T02:59:18.392Z,30.50
2024-03-09T03:01:48.279Z,32.93
2024-03-09T03:04:16.565Z,32.00
2024-03-09T03:06:44.956Z,32.53
2024-03-09T03:09:20.482Z,32.40
2024-03-09T03:11:47.715Z,32.93
2024-03-09T03:14:16.521Z,32.97
2024-03-09T03:16:43.603Z,30.77
2024-03-09T03:19:11.100Z,31.90
2024-03-09T03:21:42.441Z,31.40
2024-03-09T03:24:10.853Z,30.37
2024-03-09T03:26:38.249Z,30.60
2024-03-09T03:29:05.906Z,29.70
2024-03-09T03:31:33.087Z,29.77
2024-03-09T03:34:02.096Z,29.60
2024-03-09T03:36:29.852Z,29.57
2024-03-09T03:38:56.946Z,30.50
2024-03-09T03:41:24.490Z,31.33
2024-03-09T03:43:52.576Z,31.10
2024-03-09T03:46:19.690Z,30.53
2024-03-09T03:48:48.128Z,29.53
2024-03-09T03:51:16.852Z,29.70
2024-03-09T03:53:45.729Z,31.10
2024-03-09T03:56:13.751Z,28.70
2024-03-09T03:58:43.282Z,28.67
2024-03-09T04:01:10.826Z,28.40
2024-03-09T04:03:39.332Z,29.90
2024-03-09T04:06:07.835Z,29.10
2024-03-09T04:08:35.267Z,30.37
2024-03-09T04:11:04.594Z,29.20
2024-03-09T04:13:32.107Z,29.83
2024-03-09T04:15:59.466Z,28.20
2024-03-09T04:18:29.931Z,27.97
2024-03-09T04:20:57.884Z,28.33
2024-03-09T04:23:25.434Z,30.53
2024-03-09T04:25:54.235Z,28.93
2024-03-09T04:28:22.572Z,28.80
2024-03-09T04:30:51.319Z,29.03
2024-03-09T04:33:20.453Z,29.57
2024-03-09T04:35:50.665Z,29.97
2024-03-09T04:38:18.357Z,29.20
2024-03-09T04:40:50.744Z,27.03
2024-03-09T04:43:19.050Z,28.90
2024-03-09T04:45:47.214Z,28.43
2024-03-09T04:48:15.688Z,28.80
2024-03-09T04:50:48.747Z,27.47
2024-03-09T04:53:18.372Z,28.70
2024-03-09T04:55:53.223Z,30.33
2024-03-09T04:58:23.572Z,27.57
2024-03-09T05:00:50.767Z,28.97
2024-03-09T05:03:19.233Z,30.03
2024-03-09T05:05:46.362Z,27.83
2024-03-09T05:08:13.462Z,29.33
2024-03-09T05:10:40.986Z,28.47
2024-03-09T05:13:09.414Z,27.97
2024-03-09T05:15:37.307Z,27.90
2024-03-09T05:18:09.617Z,27.57
2024-03-09T05:20:37.414Z,27.70
2024-03-09T05:23:05.896Z,29.40
2024-03-09T05:25:33.517Z,27.60
2024-03-09T05:28:00.586Z,26.50
2024-03-09T05:30:31.827Z,28.60
2024-03-09T05:32:59.676Z,26.90
2024-03-09T05:35:31.576Z,26.87
2024-03-09T05:38:06.117Z,25.43
2024-03-09T05:40:33.817Z,28.17
2024-03-09T05:43:08.500Z,25.33
2024-03-09T05:45:37.593Z,27.43
2024-03-09T05:48:05.069Z,26.50
2024-03-09T05:50:33.437Z,25.00
2024-03-09T05:53:02.213Z,27.40
2024-03-09T05:55:30.157Z,28.20
2024-03-09T05:57:58.256Z,33.63
2024-03-09T06:00:30.846Z,31.23
2024-03-09T06:03:03.266Z,31.33
2024-03-09T06:05:32.521Z,29.90
2024-03-09T06:08:01.025Z,30.00
2024-03-09T06:10:29.341Z,32.37
2024-03-09T06:12:56.470Z,30.00
2024-03-09T06:15:24.926Z,30.07
2024-03-09T06:17:55.749Z,29.50
2024-03-09T06:20:27.892Z,28.40
2024-03-09T06:22:56.397Z,26.17
2024-03-09T06:25:31.460Z,25.63
2024-03-09T06:28:01.379Z,24.13
2024-03-09T06:30:31.567Z,23.33
2024-03-09T06:33:02.461Z,23.77
2024-03-09T06:35:31.041Z,25.43
2024-03-09T06:38:00.659Z,24.37
2024-03-09T06:40:32.944Z,23.93
2024-03-09T06:43:08.106Z,25.50
2024-03-09T06:45:36.510Z,23.27
2024-03-09T06:48:05.110Z,23.13
2024-03-09T06:50:33.194Z,22.40
2024-03-09T06:53:00.545Z,21.57
2024-03-09T06:55:28.583Z,22.30
2024-03-09T06:57:56.701Z,21.70
2024-03-09T07:00:29.587Z,21.60
2024-03-09T07:03:00.201Z,20.73
2024-03-09T07:05:39.157Z,20.87
2024-03-09T07:08:10.849Z,21.60
2024-03-09T07:10:38.300Z,20.10
2024-03-09T07:13:10.639Z,21.17
2024-03-09T07:15:38.511Z,20.63
2024-03-09T07:18:11.585Z,19.17
2024-03-09T07:20:39.942Z,18.97
2024-03-09T07:23:08.210Z,20.80
2024-03-09T07:25:35.144Z,18.93
2024-03-09T07:28:02.618Z,19.40
2024-03-09T07:30:33.781Z,19.37
2024-03-09T07:33:01.141Z,18.90
2024-03-09T07:35:31.747Z,18.80
2024-03-09T07:38:00.997Z,18.67
2024-03-09T07:40:31.666Z,19.87
2024-03-09T07:42:59.073Z,19.97
2024-03-09T07:45:27.560Z,19.17
2024-03-09T07:47:55.019Z,19.57
2024-03-09T07:50:24.536Z,20.07
2024-03-09T07:52:56.778Z,19.13
2024-03-09T07:55:26.057Z,20.37
2024-03-09T07:58:01.421Z,19.03
2024-03-09T08:00:36.923Z,20.77
2024-03-09T08:03:04.494Z,20.50
2024-03-09T08:05:31.892Z,20.20
2024-03-09T08:08:04.734Z,19.47
2024-03-09T08:10:34.767Z,19.20
2024-03-09T08:13:01.785Z,21.23
2024-03-09T08:15:30.595Z,20.20
2024-03-09T08:17:58.034Z,20.53
2024-03-09T08:20:25.624Z,20.70
2024-03-09T08:22:52.793Z,18.00
2024-03-09T08:25:20.176Z,16.97
2024-03-09T08:27:48.487Z,18.20
2024-03-09T08:30:16.927Z,16.00
2024-03-09T08:32:55.044Z,17.87
2024-03-09T08:35:23.244Z,18.30
2024-03-09T08:37:52.306Z,19.10
2024-03-09T08:40:22.017Z,17.57
2024-03-09T08:42:52.888Z,18.30
2024-03-09T08:45:21.902Z,18.80
2024-03-09T08:47:53.406Z,16.60
2024-03-09T08:50:22.980Z,18.33
2024-03-09T08:52:50.594Z,17.73
2024-03-09T08:55:18.503Z,17.67
2024-03-09T08:57:50.794Z,17.53
2024-03-09T09:00:26.672Z,17.77
2024-03-09T09:02:58.190Z,16.83
2024-03-09T09:05:28.766Z,15.97
2024-03-09T09:07:57.008Z,16.53
2024-03-09T09:10:26.601Z,16.90
2024-03-09T09:12:54.806Z,16.17
2024-03-09T09:15:21.818Z,17.33
2024-03-09T09:17:50.500Z,15.23
2024-03-09T09:20:17.675Z,15.30
2024-03-09T09:22:48.736Z,15.80
2024-03-09T09:25:18.446Z,16.53
2024-03-09T09:27:45.686Z,14.50
2024-03-09T09:30:14.206Z,14.33
2024-03-09T09:32:43.263Z,14.27
2024-03-09T09:35:11.251Z,14.30
2024-03-09T09:37:38.407Z,14.20
2024-03-09T09:40:08.657Z,13.50
2024-03-09T09:42:36.976Z,15.30
2024-03-09T09:45:05.629Z,15.70
2024-03-09T09:47:34.155Z,15.90
2024-03-09T09:50:02.536Z,15.37
2024-03-09T09:52:34.041Z,14.73
2024-03-09T09:55:03.337Z,15.63
2024-03-09T09:57:33.158Z,14.73
2024-03-09T10:00:00.377Z,15.50
2024-03-09T10:02:27.638Z,14.40
2024-03-09T10:04:56.357Z,14.53
2024-03-09T10:07:23.362Z,13.27
2024-03-09T10:09:50.770Z,15.00
2024-03-09T10:12:24.699Z,14.50
2024-03-09T10:14:53.158Z,14.03
2024-03-09T10:17:23.886Z,14.60
2024-03-09T10:19:51.650Z,14.90
2024-03-09T10:22:18.823Z,13.77
2024-03-09T10:24:57.717Z,15.17
2024-03-09T10:27:28.620Z,14.20
2024-03-09T10:30:12.607Z,13.33
2024-03-09T10:32:43.332Z,13.87
2024-03-09T10:35:11.403Z,13.50
2024-03-09T10:37:42.478Z,12.90
2024-03-09T10:40:14.277Z,13.90
2024-03-09T10:42:48.839Z,13.87
2024-03-09T10:45:23.973Z,13.80
2024-03-09T10:47:55.489Z,14.20
2024-03-09T10:50:30.379Z,12.67
2024-03-09T10:53:50.136Z,13.60
2024-03-09T10:56:24.952Z,17.93
2024-03-09T10:58:52.717Z,13.30
2024-03-09T11:01:24.371Z,12.97
2024-03-09T11:03:52.097Z,13.23
2024-03-09T11:06:20.428Z,12.23
2024-03-09T11:08:52.930Z,13.23
2024-03-09T11:11:22.071Z,12.33
2024-03-09T11:13:50.185Z,13.80
2024-03-09T11:16:21.454Z,13.73
2024-03-09T11:18:57.622Z,13.27
2024-03-09T11:21:35.763Z,13.33
2024-03-09T11:24:13.124Z,14.70
2024-03-09T11:26:47.164Z,12.67
2024-03-09T11:29:14.701Z,13.63
2024-03-09T11:31:43.111Z,13.00
2024-03-09T11:34:16.889Z,12.97
2024-03-09T11:36:53.781Z,18.80
2024-03-09T11:39:27.542Z,13.23
2024-03-09T11:41:56.402Z,14.03
2024-03-09T11:44:31.151Z,12.90
2024-03-09T11:46:58.309Z,13.33
2024-03-09T11:49:29.029Z,13.43
2024-03-09T11:51:59.260Z,14.47
2024-03-09T11:54:30.401Z,13.70
2024-03-09T11:56:58.107Z,14.47
2024-03-09T11:59:25.600Z,13.70
2024-03-09T12:02:09.713Z,14.40
2024-03-09T12:04:37.603Z,14.60
2024-03-09T12:07:10.337Z,14.70
2024-03-09T12:09:46.383Z,14.17
2024-03-09T12:12:16.728Z,14.07
2024-03-09T12:14:44.856Z,14.60
2024-03-09T12:17:13.141Z,15.73
2024-03-09T12:19:50.323Z,15.30
2024-03-09T12:22:18.587Z,14.53
2024-03-09T12:24:46.380Z,15.20
2024-03-09T12:27:13.744Z,14.20
2024-03-09T12:29:41.120Z,14.40
2024-03-09T12:32:08.813Z,13.63
2024-03-09T12:34:37.906Z,14.57
2024-03-09T12:37:05.432Z,13.23
2024-03-09T12:39:32.364Z,13.83
2024-03-09T12:42:02.462Z,13.43
2024-03-09T12:44:39.233Z,13.67
2024-03-09T12:47:06.631Z,12.80
2024-03-09T12:49:34.636Z,12.90
2024-03-09T12:52:03.726Z,12.17
2024-03-09T12:54:32.209Z,14.40
2024-03-09T12:57:04.647Z,13.17
2024-03-09T12:59:31.741Z,14.37
2024-03-09T13:02:00.107Z,13.47
2024-03-09T13:04:28.775Z,14.80
2024-03-09T13:06:58.322Z,13.10
2024-03-09T13:09:33.562Z,13.53
2024-03-09T13:12:02.322Z,14.33
2024-03-09T13:14:29.772Z,12.87
2024-03-09T13:16:56.861Z,12.20
2024-03-09T13:19:23.885Z,13.70
2024-03-09T13:21:53.541Z,12.80
2024-03-09T13:24:24.389Z,12.80
2024-03-09T13:26:52.941Z,12.77
2024-03-09T13:29:22.245Z,13.70
2024-03-09T13:31:51.156Z,13.13
2024-03-09T13:34:18.584Z,13.47
2024-03-09T13:36:46.876Z,13.40
2024-03-09T13:39:17.845Z,15.37
2024-03-09T13:41:46.769Z,13.97
2024-03-09T13:44:14.510Z,12.97
2024-03-09T13:46:44.727Z,13.77
2024-03-09T13:49:14.021Z,13.33
2024-03-09T13:51:44.946Z,14.10
2024-03-09T13:54:12.813Z,14.60
2024-03-09T13:56:40.174Z,13.90
2024-03-09T13:59:15.058Z,14.30
2024-03-09T14:01:45.490Z,13.47
2024-03-09T14:04:14.162Z,13.13
2024-03-09T14:06:57.357Z,14.90
2024-03-09T14:09:33.571Z,14.20
2024-03-09T14:12:01.169Z,14.63
2024-03-09T14:14:28.897Z,14.23
2024-03-09T14:16:57.119Z,13.57
2024-03-09T14:19:24.351Z,14.17
2024-03-09T14:21:52.331Z,14.00
2024-03-09T14:24:21.134Z,13.77
2024-03-09T14:26:48.466Z,13.63
2024-03-09T14:29:18.303Z,14.57
2024-03-09T14:31:47.986Z,14.77
2024-03-09T14:34:15.790Z,15.10
2024-03-09T14:36:43.047Z,15.03
2024-03-09T14:39:17.830Z,14.93
2024-03-09T14:41:45.421Z,13.77
2024-03-09T14:44:12.777Z,15.07
2024-03-09T14:46:41.305Z,14.70
2024-03-09T14:49:10.836Z,13.90
2024-03-09T14:51:38.318Z,13.77
2024-03-09T14:54:06.785Z,14.13
2024-03-09T14:56:33.762Z,13.20
2024-03-09T14:59:06.866Z,13.53
2024-03-09T15:01:35.482Z,13.70
2024-03-09T15:04:02.579Z,14.07
2024-03-09T15:06:35.293Z,13.90
2024-03-09T15:09:02.287Z,14.50
2024-03-09T15:11:29.395Z,14.33
2024-03-09T15:13:58.679Z,13.90
2024-03-09T15:16:45.741Z,13.80
2024-03-09T15:19:14.242Z,15.57
2024-03-09T15:21:44.030Z,13.80
2024-03-09T15:24:12.316Z,14.13
2024-03-09T15:26:42.114Z,13.87
2024-03-09T15:29:12.161Z,13.97
2024-03-09T15:31:39.230Z,14.53
2024-03-09T15:34:06.426Z,12.97
2024-03-09T15:36:33.378Z,14.10
2024-03-09T15:39:00.273Z,13.80
2024-03-09T15:41:29.939Z,13.00
2024-03-09T15:43:56.906Z,13.17
2024-03-09T15:46:25.080Z,13.10
2024-03-09T15:48:53.747Z,13.10
2024-03-09T15:51:20.730Z,13.87
2024-03-09T15:53:47.708Z,13.03
2024-03-09T15:56:21.340Z,14.43
2024-03-09T15:58:49.306Z,14.70
2024-03-09T16:01:17.472Z,13.93
2024-03-09T16:03:45.307Z,13.00
2024-03-09T16:06:15.392Z,14.00
2024-03-09T16:08:42.757Z,14.43
2024-03-09T16:11:10.244Z,12.37
2024-03-09T16:13:37.577Z,14.13
2024-03-09T16:16:08.692Z,14.73
2024-03-09T16:18:36.594Z,14.13
2024-03-09T16:21:10.430Z,14.60
2024-03-09T16:23:38.708Z,13.57
2024-03-09T16:26:07.494Z,15.33
2024-03-09T16:28:37.567Z,13.90
2024-03-09T16:31:05.883Z,16.23
2024-03-09T16:33:34.124Z,13.23
2024-03-09T16:36:03.605Z,12.70
2024-03-09T16:38:31.466Z,14.63
2024-03-09T16:40:59.502Z,12.93
2024-03-09T16:43:34.928Z,13.57
2024-03-09T16:46:08.933Z,14.10
2024-03-09T16:48:39.313Z,14.13
2024-03-09T16:51:10.473Z,13.43
2024-03-09T16:53:40.862Z,13.97
2024-03-09T16:56:09.987Z,13.23
2024-03-09T16:58:40.752Z,12.93
2024-03-09T17:01:08.180Z,13.60
2024-03-09T17:03:35.601Z,16.37
2024-03-09T17:06:08.929Z,31.00
2024-03-09T17:08:37.590Z,23.67
2024-03-09T17:11:10.524Z,13.47
2024-03-09T17:13:42.781Z,13.20
2024-03-09T17:16:12.220Z,12.90
2024-03-09T17:18:39.969Z,12.70
2024-03-09T17:21:07.215Z,13.80
2024-03-09T17:23:34.216Z,14.17
2024-03-09T17:26:01.928Z,15.10
2024-03-09T17:28:29.000Z,13.23
2024-03-09T17:30:57.757Z,14.77
2024-03-09T17:33:26.908Z,13.93
2024-03-09T17:35:54.299Z,13.17
2024-03-09T17:38:22.599Z,18.20
2024-03-09T17:40:50.257Z,18.80
2024-03-09T17:43:17.587Z,17.10
2024-03-09T17:45:46.740Z,16.00
2024-03-09T17:48:14.753Z,14.20
2024-03-09T17:50:43.186Z,15.30
2024-03-09T17:53:10.753Z,15.60
2024-03-09T17:55:38.012Z,15.63
2024-03-09T17:58:10.084Z,13.87
2024-03-09T18:00:39.799Z,13.03
2024-03-09T18:03:09.243Z,14.40
2024-03-09T18:05:38.179Z,14.20
2024-03-09T18:08:10.212Z,12.60
2024-03-09T18:10:43.399Z,14.50
2024-03-09T18:13:12.841Z,13.87
2024-03-09T18:15:41.460Z,13.23
2024-03-09T18:18:13.268Z,14.60
2024-03-09T18:20:47.532Z,14.00
2024-03-09T18:23:16.151Z,15.17
2024-03-09T18:25:43.989Z,13.70
2024-03-09T18:28:13.484Z,14.73
2024-03-09T18:30:40.907Z,14.37
2024-03-09T18:33:10.143Z,12.63
2024-03-09T18:35:38.898Z,13.57
2024-03-09T18:38:07.572Z,14.00
2024-03-09T18:40:34.847Z,13.20
2024-03-09T18:43:03.727Z,14.40
2024-03-09T18:45:34.004Z,13.80
2024-03-09T18:48:02.249Z,14.67
2024-03-09T18:50:29.593Z,15.23
2024-03-09T18:52:59.611Z,13.87
2024-03-09T18:55:28.955Z,14.10
2024-03-09T18:57:56.210Z,16.27
2024-03-09T19:00:28.695Z,15.47
2024-03-09T19:02:55.665Z,15.30
2024-03-09T19:05:24.094Z,14.77
2024-03-09T19:07:53.146Z,16.13
2024-03-09T19:10:20.601Z,15.33
2024-03-09T19:12:48.419Z,20.37
2024-03-09T19:15:15.488Z,18.03
2024-03-09T19:17:49.006Z,17.50
2024-03-09T19:20:21.464Z,16.87
2024-03-09T19:22:49.322Z,19.07
2024-03-09T19:25:17.386Z,19.53
2024-03-09T19:27:45.707Z,16.57
2024-03-09T19:30:18.126Z,15.27
2024-03-09T19:32:47.146Z,16.23
2024-03-09T19:35:21.580Z,15.57
2024-03-09T19:37:49.256Z,16.07
2024-03-09T19:40:17.098Z,16.30
2024-03-09T19:42:52.511Z,14.20
2024-03-09T19:45:22.622Z,15.30
2024-03-09T19:47:52.952Z,15.80
2024-03-09T19:50:24.122Z,14.27
2024-03-09T19:52:51.543Z,14.37
2024-03-09T19:55:24.341Z,15.13
2024-03-09T19:57:51.399Z,15.13
2024-03-09T20:00:24.768Z,14.70
2024-03-09T20:02:53.137Z,14.60
2024-03-09T20:05:24.424Z,14.37
2024-03-09T20:07:55.581Z,15.60
2024-03-09T20:10:24.375Z,15.40
2024-03-09T20:12:52.099Z,16.00
2024-03-09T20:15:19.439Z,15.40
2024-03-09T20:17:48.142Z,16.87
2024-03-09T20:20:17.617Z,16.07
2024-03-09T20:22:44.842Z,15.83
2024-03-09T20:25:12.860Z,16.00
2024-03-09T20:27:40.543Z,16.70
2024-03-09T20:30:10.879Z,15.13
2024-03-09T20:32:38.809Z,16.27
2024-03-09T20:35:06.933Z,18.10
2024-03-09T20:37:34.043Z,15.60
2024-03-09T20:40:01.479Z,19.40
2024-03-09T20:42:28.444Z,19.53
2024-03-09T20:44:55.389Z,15.30
2024-03-09T20:47:22.406Z,16.63
2024-03-09T20:49:49.481Z,14.80
2024-03-09T20:52:19.333Z,16.50
2024-03-09T20:54:47.338Z,17.30
2024-03-09T20:57:15.155Z,17.57
2024-03-09T20:59:45.980Z,16.83
2024-03-09T21:02:16.504Z,16.90
2024-03-09T21:04:47.819Z,16.63
2024-03-09T21:07:15.768Z,16.33
2024-03-09T21:09:42.755Z,16.20
2024-03-09T21:12:09.858Z,17.30
2024-03-09T21:14:39.117Z,16.50
2024-03-09T21:17:06.484Z,16.00
2024-03-09T21:19:33.641Z,17.40
2024-03-09T21:22:00.856Z,17.43
2024-03-09T21:24:30.873Z,16.83
2024-03-09T21:26:57.811Z,17.87
2024-03-09T21:29:25.058Z,17.73
2024-03-09T21:31:52.475Z,16.77
2024-03-09T21:34:20.017Z,17.00
2024-03-09T21:36:47.180Z,17.63
2024-03-09T21:39:16.384Z,16.30
2024-03-09T21:41:43.545Z,17.20
2024-03-09T21:44:11.510Z,17.37
2024-03-09T21:46:40.264Z,18.77
2024-03-09T21:49:07.497Z,16.57
2024-03-09T21:51:34.727Z,15.87
2024-03-09T21:54:01.588Z,18.63
2024-03-09T21:56:29.760Z,17.57
2024-03-09T21:58:57.049Z,15.97
2024-03-09T22:01:24.079Z,17.87
2024-03-09T22:03:51.186Z,18.30
2024-03-09T22:06:18.307Z,17.47
2024-03-09T22:08:45.233Z,16.37
2024-03-09T22:11:17.214Z,18.50
2024-03-09T22:13:44.573Z,17.13
2024-03-09T22:16:12.136Z,18.57
2024-03-09T22:19:21.297Z,18.13
2024-03-09T22:21:51.060Z,16.10
2024-03-09T22:24:20.696Z,18.07
2024-03-09T22:26:48.341Z,16.60
2024-03-09T22:29:15.397Z,17.00
2024-03-09T22:31:42.508Z,16.77
2024-03-09T22:34:09.666Z,16.87
2024-03-09T22:36:36.741Z,16.60
2024-03-09T22:39:05.652Z,16.63
2024-03-09T22:41:32.746Z,16.73
2024-03-09T22:44:00.044Z,16.60
2024-03-09T22:46:27.013Z,16.20
2024-03-09T22:48:54.107Z,17.70
2024-03-09T22:51:21.154Z,18.03
2024-03-09T22:53:48.151Z,16.57
2024-03-09T22:56:16.372Z,17.43
2024-03-09T22:58:43.453Z,17.70
2024-03-09T23:01:47.283Z,17.50
2024-03-09T23:04:14.476Z,17.30
2024-03-09T23:06:41.718Z,17.03
2024-03-09T23:09:08.664Z,16.90
2024-03-09T23:11:35.891Z,16.57
2024-03-09T23:14:05.130Z,15.37
2024-03-09T23:16:32.263Z,16.33
2024-03-09T23:18:59.311Z,15.90
2024-03-09T23:21:26.946Z,16.60
2024-03-09T23:23:55.439Z,17.03
2024-03-09T23:26:22.918Z,14.87
2024-03-09T23:28:49.951Z,14.90
2024-03-09T23:31:17.399Z,16.87
2024-03-09T23:33:45.173Z,16.07
2024-03-09T23:36:13.769Z,16.80
2024-03-09T23:38:40.775Z,15.60
2024-03-09T23:41:07.851Z,15.93
2024-03-09T23:43:34.920Z,16.23
2024-03-09T23:46:01.946Z,15.37
2024-03-09T23:48:29.009Z,15.10
2024-03-09T23:50:56.953Z,16.37
2024-03-09T23:53:24.073Z,16.83
2024-03-09T23:55:51.195Z,17.10
2024-03-09T23:58:18.377Z,15.10
